Forester — DIUT — position and weather

sailwx.info

Track history (hours):
 
Tides and Currents Weather Stations Pressure Air Temp Water Temp Dewpoint Dewpoint Depression Visibility Wind Speed Wind Dir Waves Ship Positions

Forester

Last reported at 2016-May-05 09:33 UTC. Time now 2016-May-05 10:26 UTC.
Position N 50°29' W 000°53'.

Length 100 m; draft 6.5 m.

Type: Ship. MMSI: 211233870.

Date/timePositionNaut miles runAvg speedWind from/ knotsBaromVisibWave heightAir tempDewpointWater temp
2016-May-05 09:33N 50°29' W 000°53'1211.6
2016-May-05 08:33N 50°30' W 000°35'1010.0
2016-May-05 07:33N 50°32' W 000°20'1010.1
2016-May-05 06:33N 50°33' W 000°04'1110.6
2016-May-05 05:33N 50°35' E 000°12'1211.9
2016-May-05 04:33N 50°38' E 000°31'1413.1
2016-May-05 03:30N 50°45' E 000°49'1313.2
2016-May-05 02:33N 50°53' E 001°05'1212.3
2016-May-05 01:33N 51°01' E 001°20'1110.9
2016-May-05 00:33N 51°08' E 001°33'10 9.6
2016-May-04 23:33N 51°14' E 001°45'1010.0
2016-May-04 22:34N 51°23' E 001°51'10 9.9
2016-May-04 21:33N 51°31' E 002°01'1212.5
2016-May-04 20:33N 51°40' E 002°14'6713.4
2016-May-04 15:33N 52°32' E 003°23'5711.2
2016-May-04 10:26N 53°13' E 004°29'1212.8
2016-May-04 09:28N 53°25' E 004°36'1112.2
2016-May-04 08:33N 53°30' E 004°53'1312.5
2016-May-04 07:31N 53°35' E 005°13'1111.5
2016-May-04 06:33N 53°39' E 005°30'1110.8
2016-May-04 05:34N 53°42' E 005°48'1110.5
2016-May-04 04:33N 53°46' E 006°05'1110.7
2016-May-04 03:33N 53°49' E 006°22'1111.3
2016-May-04 02:33N 53°51' E 006°40'1212.2
2016-May-04 01:33N 53°54' E 007°01'1312.5
2016-May-04 00:33N 53°57' E 007°21'1312.6
2016-May-03 23:33N 54°01' E 007°42'1212.5
2016-May-03 22:33N 54°01' E 008°03'1212.2
2016-May-03 21:33N 53°59' E 008°24'1110.9
2016-May-03 20:33N 53°55' E 008°41'9 8.8
2016-May-03 19:34N 53°51' E 008°53'10 9.5
2016-May-03 18:33N 53°53' E 009°08'1 1.3
2016-May-03 17:33N 53°54' E 009°10'1 0.7
2016-May-03 16:28N 53°55' E 009°11'0 0.0
2016-May-03 15:31N 53°55' E 009°11'0 0.0
2016-May-03 14:28N 53°55' E 009°11'0 0.0
2016-May-03 13:34N 53°55' E 009°11'5 4.7
2016-May-03 12:34N 53°58' E 009°16'8 8.2
2016-May-03 11:33N 54°06' E 009°20'7 7.4
2016-May-03 10:33N 54°11' E 009°30'3 2.6
2016-May-03 09:33N 54°12' E 009°34'12 5.5
2016-May-03 07:23N 54°21' E 009°47'7 7.8
2016-May-03 06:32N 54°21' E 009°58'6 6.1
2016-May-03 05:33N 54°22' E 010°08'0 0.3
2016-May-03 04:33N 54°22' E 010°08'3 2.5
2016-May-03 03:33N 54°23' E 010°12'10 9.9
2016-May-03 02:33N 54°31' E 010°23'1110.8
2016-May-03 01:33N 54°35' E 010°40'1111.2
2016-May-03 00:33N 54°36' E 010°60'1211.6
2016-May-02 23:33N 54°34' E 011°19'1211.9
2016-May-02 22:33N 54°29' E 011°38'1111.2
2016-May-02 21:33N 54°27' E 011°57'1010.0
2016-May-02 20:33N 54°32' E 012°13'1111.0
2016-May-02 19:33N 54°40' E 012°25'1111.3
2016-May-02 18:33N 54°46' E 012°42'1111.0
2016-May-02 17:33N 54°50' E 012°59'1111.2
2016-May-02 16:33N 54°54' E 013°18'1111.3
2016-May-02 15:33N 54°57' E 013°37'1111.4
2016-May-02 14:33N 55°01' E 013°56'1110.9
2016-May-02 13:33N 55°07' E 014°11'1111.4
2016-May-02 12:33N 55°16' E 014°24'1111.1
2016-May-02 11:33N 55°25' E 014°36'1111.0
2016-May-02 10:33N 55°32' E 014°51'1111.0
2016-May-02 09:33N 55°38' E 015°08'1111.0
2016-May-02 08:32N 55°44' E 015°24'1211.2
2016-May-02 07:27N 55°51' E 015°41'1210.8
2016-May-02 06:22N 55°56' E 016°00'  
2016-Apr-27 13:33N 55°44' E 015°42'1312.6
2016-Apr-27 12:33N 55°37' E 015°24'1212.3
2016-Apr-27 11:33N 55°31' E 015°04'1212.3
2016-Apr-27 10:33N 55°25' E 014°46'1212.2
2016-Apr-27 09:33N 55°17' E 014°29'1211.6
2016-Apr-27 08:33N 55°11' E 014°12'1212.0
2016-Apr-27 07:33N 55°11' E 013°51'1610.9
2016-Apr-27 06:08N 55°13' E 013°23'712.1
2016-Apr-27 05:33N 55°13' E 013°12'1212.3
2016-Apr-27 04:33N 55°15' E 012°50'10 9.7
2016-Apr-27 03:33N 55°23' E 012°39'1211.7
2016-Apr-27 02:33N 55°35' E 012°42'1111.2
2016-Apr-27 01:34N 55°46' E 012°41'1111.1
2016-Apr-27 00:33N 55°57' E 012°38'10 9.6
2016-Apr-26 23:33N 56°06' E 012°33'10 9.9
2016-Apr-26 22:33N 56°15' E 012°25'1312.9
2016-Apr-26 21:33N 56°27' E 012°17'1312.8
2016-Apr-26 20:33N 56°39' E 012°11'1312.6
2016-Apr-26 19:33N 56°51' E 012°04'1211.9
2016-Apr-26 18:33N 57°03' E 011°58'1211.9
2016-Apr-26 17:33N 57°14' E 011°51'1111.2
2016-Apr-26 16:33N 57°24' E 011°42'1110.6
2016-Apr-26 15:33N 57°35' E 011°39'2 1.7
2016-Apr-26 14:31N 57°36' E 011°42'0 0.0
2016-Apr-26 13:31N 57°36' E 011°42'0 0.0
2016-Apr-26 12:31N 57°36' E 011°42'0 0.0
2016-Apr-26 11:34N 57°36' E 011°42'9 8.5
2016-Apr-26 10:34N 57°34' E 011°26'1211.6
2016-Apr-26 09:34N 57°37' E 011°05'15 2.6
2016-Apr-26 03:32N 57°42' E 010°38'8 8.5
2016-Apr-26 02:33N 57°50' E 010°41'1010.5
2016-Apr-26 01:33N 58°00' E 010°34'1110.9
2016-Apr-26 00:33N 58°10' E 010°26'1110.5
2016-Apr-25 23:32N 58°20' E 010°18'1110.9
2016-Apr-25 22:33N 58°30' E 010°10'  
Track history (hours):
 
Tides and Currents Weather Stations Pressure Air Temp Water Temp Dewpoint Dewpoint Depression Visibility Wind Speed Wind Dir Waves Ship Positions

Forester

Last reported at 2016-May-05 09:33 UTC. Time now 2016-May-05 10:26 UTC.
Position N 50°29' W 000°53'.

Length 100 m; draft 6.5 m.

Type: Ship. MMSI: 211233870.

Date/timePositionNaut miles runAvg speedWind from/ knotsBaromVisibWave heightAir tempDewpointWater temp
2016-May-05 09:33N 50°29' W 000°53'1211.6
2016-May-05 08:33N 50°30' W 000°35'1010.0
2016-May-05 07:33N 50°32' W 000°20'1010.1
2016-May-05 06:33N 50°33' W 000°04'1110.6
2016-May-05 05:33N 50°35' E 000°12'1211.9
2016-May-05 04:33N 50°38' E 000°31'1413.1
2016-May-05 03:30N 50°45' E 000°49'1313.2
2016-May-05 02:33N 50°53' E 001°05'1212.3
2016-May-05 01:33N 51°01' E 001°20'1110.9
2016-May-05 00:33N 51°08' E 001°33'10 9.6
2016-May-04 23:33N 51°14' E 001°45'1010.0
2016-May-04 22:34N 51°23' E 001°51'10 9.9
2016-May-04 21:33N 51°31' E 002°01'1212.5
2016-May-04 20:33N 51°40' E 002°14'6713.4
2016-May-04 15:33N 52°32' E 003°23'5711.2
2016-May-04 10:26N 53°13' E 004°29'1212.8
2016-May-04 09:28N 53°25' E 004°36'1112.2
2016-May-04 08:33N 53°30' E 004°53'1312.5
2016-May-04 07:31N 53°35' E 005°13'1111.5
2016-May-04 06:33N 53°39' E 005°30'1110.8
2016-May-04 05:34N 53°42' E 005°48'1110.5
2016-May-04 04:33N 53°46' E 006°05'1110.7
2016-May-04 03:33N 53°49' E 006°22'1111.3
2016-May-04 02:33N 53°51' E 006°40'1212.2
2016-May-04 01:33N 53°54' E 007°01'1312.5
2016-May-04 00:33N 53°57' E 007°21'1312.6
2016-May-03 23:33N 54°01' E 007°42'1212.5
2016-May-03 22:33N 54°01' E 008°03'1212.2
2016-May-03 21:33N 53°59' E 008°24'1110.9
2016-May-03 20:33N 53°55' E 008°41'9 8.8
2016-May-03 19:34N 53°51' E 008°53'10 9.5
2016-May-03 18:33N 53°53' E 009°08'1 1.3
2016-May-03 17:33N 53°54' E 009°10'1 0.7
2016-May-03 16:28N 53°55' E 009°11'0 0.0
2016-May-03 15:31N 53°55' E 009°11'0 0.0
2016-May-03 14:28N 53°55' E 009°11'0 0.0
2016-May-03 13:34N 53°55' E 009°11'5 4.7
2016-May-03 12:34N 53°58' E 009°16'8 8.2
2016-May-03 11:33N 54°06' E 009°20'7 7.4
2016-May-03 10:33N 54°11' E 009°30'3 2.6
2016-May-03 09:33N 54°12' E 009°34'12 5.5
2016-May-03 07:23N 54°21' E 009°47'7 7.8
2016-May-03 06:32N 54°21' E 009°58'6 6.1
2016-May-03 05:33N 54°22' E 010°08'0 0.3
2016-May-03 04:33N 54°22' E 010°08'3 2.5
2016-May-03 03:33N 54°23' E 010°12'10 9.9
2016-May-03 02:33N 54°31' E 010°23'1110.8
2016-May-03 01:33N 54°35' E 010°40'1111.2
2016-May-03 00:33N 54°36' E 010°60'1211.6
2016-May-02 23:33N 54°34' E 011°19'1211.9
2016-May-02 22:33N 54°29' E 011°38'1111.2
2016-May-02 21:33N 54°27' E 011°57'1010.0
2016-May-02 20:33N 54°32' E 012°13'1111.0
2016-May-02 19:33N 54°40' E 012°25'1111.3
2016-May-02 18:33N 54°46' E 012°42'1111.0
2016-May-02 17:33N 54°50' E 012°59'1111.2
2016-May-02 16:33N 54°54' E 013°18'1111.3
2016-May-02 15:33N 54°57' E 013°37'1111.4
2016-May-02 14:33N 55°01' E 013°56'1110.9
2016-May-02 13:33N 55°07' E 014°11'1111.4
2016-May-02 12:33N 55°16' E 014°24'1111.1
2016-May-02 11:33N 55°25' E 014°36'1111.0
2016-May-02 10:33N 55°32' E 014°51'1111.0
2016-May-02 09:33N 55°38' E 015°08'1111.0
2016-May-02 08:32N 55°44' E 015°24'1211.2
2016-May-02 07:27N 55°51' E 015°41'1210.8
2016-May-02 06:22N 55°56' E 016°00'  
2016-Apr-27 13:33N 55°44' E 015°42'1312.6
2016-Apr-27 12:33N 55°37' E 015°24'1212.3
2016-Apr-27 11:33N 55°31' E 015°04'1212.3
2016-Apr-27 10:33N 55°25' E 014°46'1212.2
2016-Apr-27 09:33N 55°17' E 014°29'1211.6
2016-Apr-27 08:33N 55°11' E 014°12'1212.0
2016-Apr-27 07:33N 55°11' E 013°51'1610.9
2016-Apr-27 06:08N 55°13' E 013°23'712.1
2016-Apr-27 05:33N 55°13' E 013°12'1212.3
2016-Apr-27 04:33N 55°15' E 012°50'10 9.7
2016-Apr-27 03:33N 55°23' E 012°39'1211.7
2016-Apr-27 02:33N 55°35' E 012°42'1111.2
2016-Apr-27 01:34N 55°46' E 012°41'1111.1
2016-Apr-27 00:33N 55°57' E 012°38'10 9.6
2016-Apr-26 23:33N 56°06' E 012°33'10 9.9
2016-Apr-26 22:33N 56°15' E 012°25'1312.9
2016-Apr-26 21:33N 56°27' E 012°17'1312.8
2016-Apr-26 20:33N 56°39' E 012°11'1312.6
2016-Apr-26 19:33N 56°51' E 012°04'1211.9
2016-Apr-26 18:33N 57°03' E 011°58'1211.9
2016-Apr-26 17:33N 57°14' E 011°51'1111.2
2016-Apr-26 16:33N 57°24' E 011°42'1110.6
2016-Apr-26 15:33N 57°35' E 011°39'2 1.7
2016-Apr-26 14:31N 57°36' E 011°42'0 0.0
2016-Apr-26 13:31N 57°36' E 011°42'0 0.0
2016-Apr-26 12:31N 57°36' E 011°42'0 0.0
2016-Apr-26 11:34N 57°36' E 011°42'9 8.5
2016-Apr-26 10:34N 57°34' E 011°26'1211.6
2016-Apr-26 09:34N 57°37' E 011°05'15 2.6
2016-Apr-26 03:32N 57°42' E 010°38'8 8.5
2016-Apr-26 02:33N 57°50' E 010°41'1010.5
2016-Apr-26 01:33N 58°00' E 010°34'1110.9
2016-Apr-26 00:33N 58°10' E 010°26'1110.5
2016-Apr-25 23:32N 58°20' E 010°18'1110.9
2016-Apr-25 22:33N 58°30' E 010°10'  

Dump ship's entire track history